Stockton, Missouri
Current Conditions -  °F | °C
As of 2:52 AM on Wednesday 28 Jan 2015 (Local Time) from KSGF Reporting Station
Clear Clear  
Wind Chill: 36°   Ceiling: Unl
Heat Index: 44°   Visibility: 10mi
Dew Point: 31°   Wind: 20mph
Humidity: 60%   Direction: 150°SSE
Pressure: 30.07"   Gusts: 26mph
Location:  37.7°N, 93.8°W
Report Text: KSGF 280852Z 15017G23KT 10SM CLR 07/M01 A3007 RMK AO2 SLP184 T00671006 56009
Loading
Personal Weather Stations






























Interactive Weather Map New forecast layout! Learn more

10-Day Weather Forecast

Advertisements
Track Severe Weather on mobile